sensor_id;sensor_type;location;lat;lon;timestamp;P1;durP1;ratioP1;P2;durP2;ratioP2
4867;SDS011;2448;48.086;10.862;2024-02-16T00:00:34;2.20;;;2.00;;
4867;SDS011;2448;48.086;10.862;2024-02-16T00:02:59;3.37;;;2.20;;
4867;SDS011;2448;48.086;10.862;2024-02-16T00:05:24;5.73;;;3.20;;
4867;SDS011;2448;48.086;10.862;2024-02-16T00:07:50;2.80;;;2.70;;
4867;SDS011;2448;48.086;10.862;2024-02-16T00:10:15;2.53;;;2.33;;
4867;SDS011;2448;48.086;10.862;2024-02-16T00:12:43;3.23;;;2.77;;
4867;SDS011;2448;48.086;10.862;2024-02-16T00:15:09;2.83;;;2.67;;
4867;SDS011;2448;48.086;10.862;2024-02-16T00:17:36;4.10;;;2.80;;
4867;SDS011;2448;48.086;10.862;2024-02-16T00:20:02;5.23;;;2.87;;
4867;SDS011;2448;48.086;10.862;2024-02-16T00:22:28;2.80;;;2.63;;
4867;SDS011;2448;48.086;10.862;2024-02-16T00:24:53;3.30;;;3.10;;
4867;SDS011;2448;48.086;10.862;2024-02-16T00:27:20;4.07;;;2.93;;
4867;SDS011;2448;48.086;10.862;2024-02-16T00:29:45;3.73;;;2.80;;
4867;SDS011;2448;48.086;10.862;2024-02-16T00:32:14;3.20;;;3.00;;
4867;SDS011;2448;48.086;10.862;2024-02-16T00:34:40;4.33;;;2.60;;
4867;SDS011;2448;48.086;10.862;2024-02-16T00:37:06;3.20;;;2.80;;
4867;SDS011;2448;48.086;10.862;2024-02-16T00:39:35;4.97;;;2.83;;
4867;SDS011;2448;48.086;10.862;2024-02-16T00:42:01;8.77;;;3.40;;
4867;SDS011;2448;48.086;10.862;2024-02-16T00:44:26;3.13;;;2.37;;
4867;SDS011;2448;48.086;10.862;2024-02-16T00:46:52;7.10;;;2.90;;
4867;SDS011;2448;48.086;10.862;2024-02-16T00:49:17;4.00;;;2.60;;
4867;SDS011;2448;48.086;10.862;2024-02-16T00:51:42;5.07;;;2.77;;
4867;SDS011;2448;48.086;10.862;2024-02-16T00:54:08;2.80;;;2.60;;
4867;SDS011;2448;48.086;10.862;2024-02-16T00:56:33;19.43;;;2.53;;
4867;SDS011;2448;48.086;10.862;2024-02-16T00:58:59;5.87;;;3.33;;
4867;SDS011;2448;48.086;10.862;2024-02-16T01:01:24;3.17;;;2.23;;
4867;SDS011;2448;48.086;10.862;2024-02-16T01:03:51;4.33;;;2.90;;
4867;SDS011;2448;48.086;10.862;2024-02-16T01:06:20;3.13;;;2.90;;
4867;SDS011;2448;48.086;10.862;2024-02-16T01:08:45;2.40;;;2.20;;
4867;SDS011;2448;48.086;10.862;2024-02-16T01:11:11;3.20;;;3.00;;
4867;SDS011;2448;48.086;10.862;2024-02-16T01:13:37;3.00;;;2.20;;
4867;SDS011;2448;48.086;10.862;2024-02-16T01:16:03;2.57;;;2.37;;
4867;SDS011;2448;48.086;10.862;2024-02-16T01:18:28;2.67;;;2.50;;
4867;SDS011;2448;48.086;10.862;2024-02-16T01:20:54;3.00;;;2.27;;
4867;SDS011;2448;48.086;10.862;2024-02-16T01:23:20;2.43;;;2.30;;
4867;SDS011;2448;48.086;10.862;2024-02-16T01:25:45;7.23;;;3.37;;
4867;SDS011;2448;48.086;10.862;2024-02-16T01:28:11;3.03;;;2.50;;
4867;SDS011;2448;48.086;10.862;2024-02-16T01:30:37;5.43;;;2.90;;
4867;SDS011;2448;48.086;10.862;2024-02-16T01:33:03;3.10;;;2.77;;
4867;SDS011;2448;48.086;10.862;2024-02-16T01:35:28;2.63;;;2.40;;
4867;SDS011;2448;48.086;10.862;2024-02-16T01:37:53;4.77;;;2.83;;
4867;SDS011;2448;48.086;10.862;2024-02-16T01:40:19;2.53;;;2.40;;
4867;SDS011;2448;48.086;10.862;2024-02-16T01:42:44;3.10;;;2.83;;
4867;SDS011;2448;48.086;10.862;2024-02-16T01:45:10;3.07;;;2.80;;
4867;SDS011;2448;48.086;10.862;2024-02-16T01:47:40;4.30;;;2.70;;
4867;SDS011;2448;48.086;10.862;2024-02-16T01:50:06;4.10;;;2.80;;
4867;SDS011;2448;48.086;10.862;2024-02-16T01:52:32;2.83;;;2.60;;
4867;SDS011;2448;48.086;10.862;2024-02-16T01:54:59;23.93;;;2.67;;
4867;SDS011;2448;48.086;10.862;2024-02-16T01:57:24;2.80;;;2.60;;
4867;SDS011;2448;48.086;10.862;2024-02-16T01:59:50;4.53;;;2.43;;
4867;SDS011;2448;48.086;10.862;2024-02-16T02:02:16;11.43;;;2.37;;
4867;SDS011;2448;48.086;10.862;2024-02-16T02:04:41;4.50;;;3.30;;
4867;SDS011;2448;48.086;10.862;2024-02-16T02:07:16;2.10;;;2.00;;
4867;SDS011;2448;48.086;10.862;2024-02-16T02:09:41;3.13;;;2.73;;
4867;SDS011;2448;48.086;10.862;2024-02-16T02:12:10;4.07;;;3.00;;
4867;SDS011;2448;48.086;10.862;2024-02-16T02:14:36;5.27;;;3.30;;
4867;SDS011;2448;48.086;10.862;2024-02-16T02:17:04;3.70;;;2.50;;
4867;SDS011;2448;48.086;10.862;2024-02-16T02:19:29;2.40;;;2.20;;
4867;SDS011;2448;48.086;10.862;2024-02-16T02:21:55;2.07;;;1.97;;
4867;SDS011;2448;48.086;10.862;2024-02-16T02:24:21;3.40;;;2.30;;
4867;SDS011;2448;48.086;10.862;2024-02-16T02:26:46;3.53;;;2.73;;
4867;SDS011;2448;48.086;10.862;2024-02-16T02:29:11;3.53;;;2.73;;
4867;SDS011;2448;48.086;10.862;2024-02-16T02:31:37;3.83;;;3.33;;
4867;SDS011;2448;48.086;10.862;2024-02-16T02:34:02;2.70;;;2.40;;
4867;SDS011;2448;48.086;10.862;2024-02-16T02:36:27;2.20;;;2.10;;
4867;SDS011;2448;48.086;10.862;2024-02-16T02:38:53;2.50;;;2.30;;
4867;SDS011;2448;48.086;10.862;2024-02-16T02:41:18;8.80;;;2.90;;
4867;SDS011;2448;48.086;10.862;2024-02-16T02:43:45;2.50;;;2.30;;
4867;SDS011;2448;48.086;10.862;2024-02-16T02:46:14;2.30;;;2.20;;
4867;SDS011;2448;48.086;10.862;2024-02-16T02:48:39;3.10;;;2.57;;
4867;SDS011;2448;48.086;10.862;2024-02-16T02:51:05;3.43;;;2.10;;
4867;SDS011;2448;48.086;10.862;2024-02-16T02:53:30;3.23;;;2.63;;
4867;SDS011;2448;48.086;10.862;2024-02-16T02:55:55;4.77;;;3.33;;
4867;SDS011;2448;48.086;10.862;2024-02-16T02:58:21;3.53;;;2.53;;
4867;SDS011;2448;48.086;10.862;2024-02-16T03:00:46;3.27;;;2.60;;
4867;SDS011;2448;48.086;10.862;2024-02-16T03:03:12;3.27;;;3.00;;
4867;SDS011;2448;48.086;10.862;2024-02-16T03:05:40;6.30;;;2.50;;
4867;SDS011;2448;48.086;10.862;2024-02-16T03:08:05;3.00;;;2.40;;
4867;SDS011;2448;48.086;10.862;2024-02-16T03:10:31;6.53;;;2.17;;
4867;SDS011;2448;48.086;10.862;2024-02-16T03:13:00;3.27;;;2.20;;
4867;SDS011;2448;48.086;10.862;2024-02-16T03:15:25;2.20;;;2.00;;
4867;SDS011;2448;48.086;10.862;2024-02-16T03:17:51;2.77;;;2.60;;
4867;SDS011;2448;48.086;10.862;2024-02-16T03:20:16;2.67;;;1.93;;
4867;SDS011;2448;48.086;10.862;2024-02-16T03:22:41;2.57;;;2.37;;
4867;SDS011;2448;48.086;10.862;2024-02-16T03:25:07;2.53;;;2.33;;
4867;SDS011;2448;48.086;10.862;2024-02-16T03:27:32;6.33;;;2.80;;
4867;SDS011;2448;48.086;10.862;2024-02-16T03:29:58;2.50;;;2.37;;
4867;SDS011;2448;48.086;10.862;2024-02-16T03:32:24;6.20;;;3.33;;
4867;SDS011;2448;48.086;10.862;2024-02-16T03:34:50;2.30;;;2.20;;
4867;SDS011;2448;48.086;10.862;2024-02-16T03:37:15;4.83;;;3.00;;
4867;SDS011;2448;48.086;10.862;2024-02-16T03:39:41;8.53;;;2.20;;
4867;SDS011;2448;48.086;10.862;2024-02-16T03:42:06;4.93;;;2.10;;
4867;SDS011;2448;48.086;10.862;2024-02-16T03:44:32;4.33;;;2.90;;
4867;SDS011;2448;48.086;10.862;2024-02-16T03:46:57;2.97;;;2.73;;
4867;SDS011;2448;48.086;10.862;2024-02-16T03:49:22;2.80;;;2.43;;
4867;SDS011;2448;48.086;10.862;2024-02-16T03:51:48;6.80;;;2.27;;
4867;SDS011;2448;48.086;10.862;2024-02-16T03:54:13;3.20;;;3.00;;
4867;SDS011;2448;48.086;10.862;2024-02-16T03:56:39;3.37;;;2.60;;
4867;SDS011;2448;48.086;10.862;2024-02-16T03:59:04;2.13;;;2.03;;
4867;SDS011;2448;48.086;10.862;2024-02-16T04:01:30;2.37;;;2.27;;
4867;SDS011;2448;48.086;10.862;2024-02-16T04:03:56;2.00;;;1.90;;
4867;SDS011;2448;48.086;10.862;2024-02-16T04:06:21;2.17;;;2.07;;
4867;SDS011;2448;48.086;10.862;2024-02-16T04:08:47;2.93;;;2.70;;
4867;SDS011;2448;48.086;10.862;2024-02-16T04:11:13;5.13;;;3.23;;
4867;SDS011;2448;48.086;10.862;2024-02-16T04:13:40;2.33;;;2.13;;
4867;SDS011;2448;48.086;10.862;2024-02-16T04:16:05;3.90;;;2.33;;
4867;SDS011;2448;48.086;10.862;2024-02-16T04:18:31;5.00;;;2.53;;
4867;SDS011;2448;48.086;10.862;2024-02-16T04:20:56;2.30;;;2.17;;
4867;SDS011;2448;48.086;10.862;2024-02-16T04:23:22;2.83;;;2.67;;
4867;SDS011;2448;48.086;10.862;2024-02-16T04:25:47;4.20;;;2.43;;
4867;SDS011;2448;48.086;10.862;2024-02-16T04:28:12;2.43;;;2.33;;
4867;SDS011;2448;48.086;10.862;2024-02-16T04:30:38;2.23;;;2.13;;
4867;SDS011;2448;48.086;10.862;2024-02-16T04:33:04;4.50;;;3.27;;
4867;SDS011;2448;48.086;10.862;2024-02-16T04:35:29;3.93;;;2.83;;
4867;SDS011;2448;48.086;10.862;2024-02-16T04:37:55;2.53;;;2.33;;
4867;SDS011;2448;48.086;10.862;2024-02-16T04:40:20;2.27;;;2.07;;
4867;SDS011;2448;48.086;10.862;2024-02-16T04:42:45;2.40;;;1.93;;
4867;SDS011;2448;48.086;10.862;2024-02-16T04:45:12;3.50;;;2.73;;
4867;SDS011;2448;48.086;10.862;2024-02-16T04:47:41;2.60;;;2.40;;
4867;SDS011;2448;48.086;10.862;2024-02-16T04:50:06;3.13;;;2.00;;
4867;SDS011;2448;48.086;10.862;2024-02-16T04:52:35;2.70;;;2.20;;
4867;SDS011;2448;48.086;10.862;2024-02-16T04:55:01;5.83;;;2.60;;
4867;SDS011;2448;48.086;10.862;2024-02-16T04:57:26;2.60;;;2.40;;
4867;SDS011;2448;48.086;10.862;2024-02-16T04:59:51;2.53;;;2.33;;
4867;SDS011;2448;48.086;10.862;2024-02-16T05:02:17;5.63;;;1.97;;
4867;SDS011;2448;48.086;10.862;2024-02-16T05:04:42;4.37;;;2.33;;
4867;SDS011;2448;48.086;10.862;2024-02-16T05:07:07;4.83;;;2.63;;
4867;SDS011;2448;48.086;10.862;2024-02-16T05:09:33;2.70;;;2.27;;
4867;SDS011;2448;48.086;10.862;2024-02-16T05:11:58;3.53;;;2.00;;
4867;SDS011;2448;48.086;10.862;2024-02-16T05:14:24;2.10;;;1.93;;
4867;SDS011;2448;48.086;10.862;2024-02-16T05:16:49;2.10;;;2.00;;
4867;SDS011;2448;48.086;10.862;2024-02-16T05:19:15;2.97;;;2.00;;
4867;SDS011;2448;48.086;10.862;2024-02-16T05:21:41;2.33;;;2.23;;
4867;SDS011;2448;48.086;10.862;2024-02-16T05:24:06;2.03;;;1.80;;
4867;SDS011;2448;48.086;10.862;2024-02-16T05:26:31;2.27;;;2.10;;
4867;SDS011;2448;48.086;10.862;2024-02-16T05:28:57;1.30;;;1.30;;
4867;SDS011;2448;48.086;10.862;2024-02-16T05:31:22;5.50;;;2.30;;
4867;SDS011;2448;48.086;10.862;2024-02-16T05:33:48;2.30;;;2.10;;
4867;SDS011;2448;48.086;10.862;2024-02-16T05:36:21;2.50;;;2.30;;
4867;SDS011;2448;48.086;10.862;2024-02-16T05:38:49;1.87;;;1.77;;
4867;SDS011;2448;48.086;10.862;2024-02-16T05:41:18;1.87;;;1.80;;
4867;SDS011;2448;48.086;10.862;2024-02-16T05:43:43;1.90;;;1.80;;
4867;SDS011;2448;48.086;10.862;2024-02-16T05:46:12;2.00;;;1.80;;
4867;SDS011;2448;48.086;10.862;2024-02-16T05:48:37;4.57;;;2.17;;
4867;SDS011;2448;48.086;10.862;2024-02-16T05:51:05;3.17;;;2.27;;
4867;SDS011;2448;48.086;10.862;2024-02-16T05:53:30;1.93;;;1.90;;
4867;SDS011;2448;48.086;10.862;2024-02-16T05:55:56;2.93;;;2.60;;
4867;SDS011;2448;48.086;10.862;2024-02-16T05:58:21;4.73;;;2.23;;
4867;SDS011;2448;48.086;10.862;2024-02-16T06:00:48;2.10;;;2.00;;
4867;SDS011;2448;48.086;10.862;2024-02-16T06:03:13;2.20;;;2.00;;
4867;SDS011;2448;48.086;10.862;2024-02-16T06:05:39;3.87;;;2.87;;
4867;SDS011;2448;48.086;10.862;2024-02-16T06:08:06;5.13;;;3.07;;
4867;SDS011;2448;48.086;10.862;2024-02-16T06:10:32;2.20;;;2.00;;
4867;SDS011;2448;48.086;10.862;2024-02-16T06:12:57;2.43;;;1.90;;
4867;SDS011;2448;48.086;10.862;2024-02-16T06:15:23;1.70;;;1.57;;
4867;SDS011;2448;48.086;10.862;2024-02-16T06:17:48;2.47;;;2.27;;
4867;SDS011;2448;48.086;10.862;2024-02-16T06:20:15;2.43;;;2.33;;
4867;SDS011;2448;48.086;10.862;2024-02-16T06:22:41;2.30;;;2.00;;
4867;SDS011;2448;48.086;10.862;2024-02-16T06:25:07;2.13;;;2.00;;
4867;SDS011;2448;48.086;10.862;2024-02-16T06:27:32;2.27;;;2.00;;
4867;SDS011;2448;48.086;10.862;2024-02-16T06:29:58;1.60;;;1.50;;
4867;SDS011;2448;48.086;10.862;2024-02-16T06:32:23;2.17;;;2.07;;
4867;SDS011;2448;48.086;10.862;2024-02-16T06:34:49;2.17;;;2.07;;
4867;SDS011;2448;48.086;10.862;2024-02-16T06:37:14;1.80;;;1.70;;
4867;SDS011;2448;48.086;10.862;2024-02-16T06:39:40;5.03;;;2.50;;
4867;SDS011;2448;48.086;10.862;2024-02-16T06:42:05;2.10;;;2.00;;
4867;SDS011;2448;48.086;10.862;2024-02-16T06:44:31;2.50;;;2.10;;
4867;SDS011;2448;48.086;10.862;2024-02-16T06:46:56;2.03;;;1.83;;
4867;SDS011;2448;48.086;10.862;2024-02-16T06:49:22;2.40;;;2.20;;
4867;SDS011;2448;48.086;10.862;2024-02-16T06:51:47;2.63;;;2.27;;
4867;SDS011;2448;48.086;10.862;2024-02-16T06:54:13;6.63;;;1.83;;
4867;SDS011;2448;48.086;10.862;2024-02-16T06:56:39;2.40;;;2.20;;
4867;SDS011;2448;48.086;10.862;2024-02-16T06:59:05;1.93;;;1.83;;
4867;SDS011;2448;48.086;10.862;2024-02-16T07:01:30;3.47;;;2.10;;
4867;SDS011;2448;48.086;10.862;2024-02-16T07:03:55;1.97;;;1.77;;
4867;SDS011;2448;48.086;10.862;2024-02-16T07:06:21;3.27;;;1.73;;
4867;SDS011;2448;48.086;10.862;2024-02-16T07:08:46;2.17;;;1.97;;
4867;SDS011;2448;48.086;10.862;2024-02-16T07:11:12;4.43;;;1.90;;
4867;SDS011;2448;48.086;10.862;2024-02-16T07:13:38;2.20;;;1.67;;
4867;SDS011;2448;48.086;10.862;2024-02-16T07:16:04;2.63;;;2.17;;
4867;SDS011;2448;48.086;10.862;2024-02-16T07:18:32;4.80;;;2.87;;
4867;SDS011;2448;48.086;10.862;2024-02-16T07:20:57;1.87;;;1.77;;
4867;SDS011;2448;48.086;10.862;2024-02-16T07:23:24;3.33;;;2.00;;
4867;SDS011;2448;48.086;10.862;2024-02-16T07:25:49;1.93;;;1.77;;
4867;SDS011;2448;48.086;10.862;2024-02-16T07:28:15;2.63;;;1.90;;
4867;SDS011;2448;48.086;10.862;2024-02-16T07:30:40;3.40;;;2.50;;
4867;SDS011;2448;48.086;10.862;2024-02-16T07:33:06;4.63;;;1.70;;
4867;SDS011;2448;48.086;10.862;2024-02-16T07:35:32;2.13;;;2.03;;
4867;SDS011;2448;48.086;10.862;2024-02-16T07:37:58;3.20;;;2.97;;
4867;SDS011;2448;48.086;10.862;2024-02-16T07:40:23;2.60;;;2.13;;
4867;SDS011;2448;48.086;10.862;2024-02-16T07:42:49;2.90;;;2.70;;
4867;SDS011;2448;48.086;10.862;2024-02-16T07:45:14;5.80;;;2.90;;
4867;SDS011;2448;48.086;10.862;2024-02-16T07:47:42;3.23;;;2.33;;
4867;SDS011;2448;48.086;10.862;2024-02-16T07:50:08;2.93;;;2.50;;
4867;SDS011;2448;48.086;10.862;2024-02-16T07:52:33;4.23;;;2.80;;
4867;SDS011;2448;48.086;10.862;2024-02-16T07:54:59;4.27;;;2.90;;
4867;SDS011;2448;48.086;10.862;2024-02-16T07:57:24;22.97;;;3.53;;
4867;SDS011;2448;48.086;10.862;2024-02-16T07:59:49;4.40;;;2.73;;
4867;SDS011;2448;48.086;10.862;2024-02-16T08:02:15;5.23;;;2.67;;
4867;SDS011;2448;48.086;10.862;2024-02-16T08:04:41;3.07;;;2.77;;
4867;SDS011;2448;48.086;10.862;2024-02-16T08:07:06;3.07;;;2.20;;
4867;SDS011;2448;48.086;10.862;2024-02-16T08:09:32;2.40;;;2.30;;
4867;SDS011;2448;48.086;10.862;2024-02-16T08:11:58;10.07;;;2.47;;
4867;SDS011;2448;48.086;10.862;2024-02-16T08:14:23;2.53;;;2.43;;
4867;SDS011;2448;48.086;10.862;2024-02-16T08:16:48;2.80;;;2.60;;
4867;SDS011;2448;48.086;10.862;2024-02-16T08:19:14;2.73;;;2.23;;
4867;SDS011;2448;48.086;10.862;2024-02-16T08:21:39;3.63;;;2.10;;
4867;SDS011;2448;48.086;10.862;2024-02-16T08:24:05;4.10;;;2.20;;
4867;SDS011;2448;48.086;10.862;2024-02-16T08:26:30;3.03;;;2.40;;
4867;SDS011;2448;48.086;10.862;2024-02-16T08:28:56;4.73;;;3.40;;
4867;SDS011;2448;48.086;10.862;2024-02-16T08:31:21;3.50;;;2.93;;
4867;SDS011;2448;48.086;10.862;2024-02-16T08:33:47;3.10;;;2.80;;
4867;SDS011;2448;48.086;10.862;2024-02-16T08:36:13;8.23;;;2.60;;
4867;SDS011;2448;48.086;10.862;2024-02-16T08:38:39;4.67;;;2.93;;
4867;SDS011;2448;48.086;10.862;2024-02-16T08:41:04;4.57;;;2.70;;
4867;SDS011;2448;48.086;10.862;2024-02-16T08:43:30;3.30;;;2.50;;
4867;SDS011;2448;48.086;10.862;2024-02-16T08:45:55;3.23;;;2.93;;
4867;SDS011;2448;48.086;10.862;2024-02-16T08:48:21;3.07;;;2.50;;
4867;SDS011;2448;48.086;10.862;2024-02-16T08:50:47;14.47;;;3.53;;
4867;SDS011;2448;48.086;10.862;2024-02-16T08:53:13;6.07;;;3.67;;
4867;SDS011;2448;48.086;10.862;2024-02-16T08:55:39;4.70;;;3.07;;
4867;SDS011;2448;48.086;10.862;2024-02-16T08:58:07;8.17;;;2.90;;
4867;SDS011;2448;48.086;10.862;2024-02-16T09:00:32;4.00;;;2.80;;
4867;SDS011;2448;48.086;10.862;2024-02-16T09:02:57;2.73;;;2.40;;
4867;SDS011;2448;48.086;10.862;2024-02-16T09:05:23;6.87;;;2.60;;
4867;SDS011;2448;48.086;10.862;2024-02-16T09:07:48;8.40;;;3.23;;
4867;SDS011;2448;48.086;10.862;2024-02-16T09:10:14;5.90;;;2.67;;
4867;SDS011;2448;48.086;10.862;2024-02-16T09:12:39;4.10;;;2.47;;
4867;SDS011;2448;48.086;10.862;2024-02-16T09:15:05;4.83;;;2.30;;
4867;SDS011;2448;48.086;10.862;2024-02-16T09:17:31;2.30;;;1.83;;
4867;SDS011;2448;48.086;10.862;2024-02-16T09:19:56;12.57;;;1.87;;
4867;SDS011;2448;48.086;10.862;2024-02-16T09:22:22;1.57;;;1.47;;
4867;SDS011;2448;48.086;10.862;2024-02-16T09:24:47;1.57;;;0.93;;
4867;SDS011;2448;48.086;10.862;2024-02-16T09:27:13;2.10;;;1.70;;
4867;SDS011;2448;48.086;10.862;2024-02-16T09:29:38;1.50;;;1.40;;
4867;SDS011;2448;48.086;10.862;2024-02-16T09:32:05;1.50;;;1.40;;
4867;SDS011;2448;48.086;10.862;2024-02-16T09:34:30;1.40;;;1.27;;
4867;SDS011;2448;48.086;10.862;2024-02-16T09:36:56;1.80;;;1.67;;
4867;SDS011;2448;48.086;10.862;2024-02-16T09:39:21;1.47;;;1.43;;
4867;SDS011;2448;48.086;10.862;2024-02-16T09:41:49;1.30;;;1.20;;
4867;SDS011;2448;48.086;10.862;2024-02-16T09:44:15;1.20;;;1.10;;
4867;SDS011;2448;48.086;10.862;2024-02-16T09:46:41;1.67;;;1.57;;
4867;SDS011;2448;48.086;10.862;2024-02-16T09:49:07;1.50;;;1.40;;
4867;SDS011;2448;48.086;10.862;2024-02-16T09:51:35;3.60;;;1.67;;
4867;SDS011;2448;48.086;10.862;2024-02-16T09:54:01;1.50;;;1.40;;
4867;SDS011;2448;48.086;10.862;2024-02-16T09:56:26;1.33;;;1.20;;
4867;SDS011;2448;48.086;10.862;2024-02-16T09:58:52;1.30;;;1.20;;
4867;SDS011;2448;48.086;10.862;2024-02-16T10:01:18;3.40;;;1.47;;
4867;SDS011;2448;48.086;10.862;2024-02-16T10:03:45;2.30;;;0.97;;
4867;SDS011;2448;48.086;10.862;2024-02-16T10:06:10;2.00;;;1.10;;
4867;SDS011;2448;48.086;10.862;2024-02-16T10:08:49;2.40;;;1.17;;
4867;SDS011;2448;48.086;10.862;2024-02-16T10:11:16;1.03;;;0.93;;
4867;SDS011;2448;48.086;10.862;2024-02-16T10:13:41;3.13;;;1.40;;
4867;SDS011;2448;48.086;10.862;2024-02-16T10:16:07;0.93;;;0.90;;
4867;SDS011;2448;48.086;10.862;2024-02-16T10:18:34;1.27;;;0.90;;
4867;SDS011;2448;48.086;10.862;2024-02-16T10:20:59;8.23;;;1.27;;
4867;SDS011;2448;48.086;10.862;2024-02-16T10:23:25;2.10;;;1.53;;
4867;SDS011;2448;48.086;10.862;2024-02-16T10:25:51;1.20;;;1.20;;
4867;SDS011;2448;48.086;10.862;2024-02-16T10:28:16;2.70;;;1.23;;
4867;SDS011;2448;48.086;10.862;2024-02-16T10:30:43;1.03;;;1.03;;
4867;SDS011;2448;48.086;10.862;2024-02-16T10:33:09;1.07;;;1.00;;
4867;SDS011;2448;48.086;10.862;2024-02-16T10:35:37;2.30;;;1.33;;
4867;SDS011;2448;48.086;10.862;2024-02-16T10:38:05;2.77;;;1.20;;
4867;SDS011;2448;48.086;10.862;2024-02-16T10:40:37;1.00;;;1.00;;
4867;SDS011;2448;48.086;10.862;2024-02-16T10:43:06;3.07;;;1.40;;
4867;SDS011;2448;48.086;10.862;2024-02-16T10:45:35;1.00;;;1.00;;
4867;SDS011;2448;48.086;10.862;2024-02-16T10:48:02;1.53;;;1.20;;
4867;SDS011;2448;48.086;10.862;2024-02-16T10:50:27;1.20;;;1.17;;
4867;SDS011;2448;48.086;10.862;2024-02-16T10:52:53;2.97;;;1.40;;
4867;SDS011;2448;48.086;10.862;2024-02-16T10:55:19;0.93;;;0.93;;
4867;SDS011;2448;48.086;10.862;2024-02-16T10:57:44;1.50;;;1.40;;
4867;SDS011;2448;48.086;10.862;2024-02-16T11:00:10;1.73;;;1.23;;
4867;SDS011;2448;48.086;10.862;2024-02-16T11:02:56;1.77;;;1.60;;
4867;SDS011;2448;48.086;10.862;2024-02-16T11:05:36;3.73;;;1.77;;
4867;SDS011;2448;48.086;10.862;2024-02-16T11:08:05;1.43;;;1.33;;
4867;SDS011;2448;48.086;10.862;2024-02-16T11:10:36;1.67;;;1.57;;
4867;SDS011;2448;48.086;10.862;2024-02-16T11:13:02;2.43;;;1.43;;
4867;SDS011;2448;48.086;10.862;2024-02-16T11:15:30;4.53;;;1.50;;
4867;SDS011;2448;48.086;10.862;2024-02-16T11:17:56;1.90;;;1.30;;
4867;SDS011;2448;48.086;10.862;2024-02-16T11:20:23;1.50;;;1.40;;
4867;SDS011;2448;48.086;10.862;2024-02-16T11:22:49;1.67;;;1.30;;
4867;SDS011;2448;48.086;10.862;2024-02-16T11:25:16;2.20;;;1.50;;
4867;SDS011;2448;48.086;10.862;2024-02-16T11:27:41;2.27;;;1.50;;
4867;SDS011;2448;48.086;10.862;2024-02-16T11:30:09;1.53;;;1.43;;
4867;SDS011;2448;48.086;10.862;2024-02-16T11:32:35;1.93;;;1.40;;
4867;SDS011;2448;48.086;10.862;2024-02-16T11:35:07;2.73;;;1.40;;
4867;SDS011;2448;48.086;10.862;2024-02-16T11:37:33;2.70;;;1.73;;
4867;SDS011;2448;48.086;10.862;2024-02-16T11:39:58;1.93;;;1.70;;
4867;SDS011;2448;48.086;10.862;2024-02-16T11:42:23;1.93;;;1.60;;
4867;SDS011;2448;48.086;10.862;2024-02-16T11:44:55;1.47;;;1.37;;
4867;SDS011;2448;48.086;10.862;2024-02-16T11:47:21;3.03;;;1.70;;
4867;SDS011;2448;48.086;10.862;2024-02-16T11:50:00;2.97;;;1.43;;
4867;SDS011;2448;48.086;10.862;2024-02-16T11:52:25;1.83;;;1.70;;
4867;SDS011;2448;48.086;10.862;2024-02-16T11:54:50;1.73;;;1.57;;
4867;SDS011;2448;48.086;10.862;2024-02-16T11:57:16;3.73;;;1.40;;
4867;SDS011;2448;48.086;10.862;2024-02-16T11:59:41;1.70;;;1.60;;
4867;SDS011;2448;48.086;10.862;2024-02-16T12:02:06;4.90;;;1.50;;
4867;SDS011;2448;48.086;10.862;2024-02-16T12:04:32;8.63;;;1.63;;
4867;SDS011;2448;48.086;10.862;2024-02-16T12:06:58;5.13;;;1.43;;
4867;SDS011;2448;48.086;10.862;2024-02-16T12:09:23;2.03;;;1.93;;
4867;SDS011;2448;48.086;10.862;2024-02-16T12:11:50;1.93;;;1.70;;
4867;SDS011;2448;48.086;10.862;2024-02-16T12:14:19;5.33;;;1.30;;
4867;SDS011;2448;48.086;10.862;2024-02-16T12:16:51;3.70;;;3.30;;
4867;SDS011;2448;48.086;10.862;2024-02-16T12:19:19;1.30;;;1.20;;
4867;SDS011;2448;48.086;10.862;2024-02-16T12:21:51;1.87;;;1.77;;
4867;SDS011;2448;48.086;10.862;2024-02-16T12:24:17;1.63;;;1.47;;
4867;SDS011;2448;48.086;10.862;2024-02-16T12:26:43;1.40;;;1.30;;
4867;SDS011;2448;48.086;10.862;2024-02-16T12:29:08;1.40;;;1.27;;
4867;SDS011;2448;48.086;10.862;2024-02-16T12:31:37;1.67;;;1.30;;
4867;SDS011;2448;48.086;10.862;2024-02-16T12:34:03;2.03;;;1.43;;
4867;SDS011;2448;48.086;10.862;2024-02-16T12:36:30;2.43;;;1.73;;
4867;SDS011;2448;48.086;10.862;2024-02-16T12:38:55;1.37;;;1.27;;
4867;SDS011;2448;48.086;10.862;2024-02-16T12:41:21;2.73;;;1.50;;
4867;SDS011;2448;48.086;10.862;2024-02-16T12:43:46;2.60;;;1.40;;
4867;SDS011;2448;48.086;10.862;2024-02-16T12:46:12;1.80;;;1.70;;
4867;SDS011;2448;48.086;10.862;2024-02-16T12:48:37;1.20;;;1.20;;
4867;SDS011;2448;48.086;10.862;2024-02-16T12:51:02;9.70;;;1.80;;
4867;SDS011;2448;48.086;10.862;2024-02-16T12:53:28;1.20;;;1.20;;
4867;SDS011;2448;48.086;10.862;2024-02-16T12:55:56;1.13;;;1.13;;
4867;SDS011;2448;48.086;10.862;2024-02-16T12:58:21;1.70;;;1.60;;
4867;SDS011;2448;48.086;10.862;2024-02-16T13:00:46;1.87;;;1.37;;
4867;SDS011;2448;48.086;10.862;2024-02-16T13:03:12;1.33;;;1.20;;
4867;SDS011;2448;48.086;10.862;2024-02-16T13:05:37;3.20;;;1.67;;
4867;SDS011;2448;48.086;10.862;2024-02-16T13:08:04;2.50;;;1.27;;
4867;SDS011;2448;48.086;10.862;2024-02-16T13:10:30;1.07;;;1.07;;
4867;SDS011;2448;48.086;10.862;2024-02-16T13:12:55;2.50;;;1.20;;
4867;SDS011;2448;48.086;10.862;2024-02-16T13:15:20;1.30;;;1.30;;
4867;SDS011;2448;48.086;10.862;2024-02-16T13:17:46;1.67;;;1.57;;
4867;SDS011;2448;48.086;10.862;2024-02-16T13:20:11;1.43;;;1.33;;
4867;SDS011;2448;48.086;10.862;2024-02-16T13:22:36;1.23;;;1.23;;
4867;SDS011;2448;48.086;10.862;2024-02-16T13:25:03;1.40;;;1.30;;
4867;SDS011;2448;48.086;10.862;2024-02-16T13:27:28;1.50;;;1.40;;
4867;SDS011;2448;48.086;10.862;2024-02-16T13:29:54;3.13;;;1.63;;
4867;SDS011;2448;48.086;10.862;2024-02-16T13:32:19;1.37;;;1.30;;
4867;SDS011;2448;48.086;10.862;2024-02-16T13:34:45;1.33;;;1.23;;
4867;SDS011;2448;48.086;10.862;2024-02-16T13:37:10;2.93;;;1.77;;
4867;SDS011;2448;48.086;10.862;2024-02-16T13:39:35;1.50;;;1.40;;
4867;SDS011;2448;48.086;10.862;2024-02-16T13:42:01;1.90;;;1.33;;
4867;SDS011;2448;48.086;10.862;2024-02-16T13:44:26;1.63;;;1.57;;
4867;SDS011;2448;48.086;10.862;2024-02-16T13:46:51;1.43;;;1.43;;
4867;SDS011;2448;48.086;10.862;2024-02-16T13:49:17;3.03;;;1.23;;
4867;SDS011;2448;48.086;10.862;2024-02-16T13:51:42;2.07;;;1.00;;
4867;SDS011;2448;48.086;10.862;2024-02-16T13:54:08;10.67;;;2.40;;
4867;SDS011;2448;48.086;10.862;2024-02-16T13:56:33;2.20;;;1.40;;
4867;SDS011;2448;48.086;10.862;2024-02-16T13:59:01;1.20;;;1.20;;
4867;SDS011;2448;48.086;10.862;2024-02-16T14:01:27;1.30;;;1.30;;
4867;SDS011;2448;48.086;10.862;2024-02-16T14:03:52;5.23;;;1.30;;
4867;SDS011;2448;48.086;10.862;2024-02-16T14:06:18;4.27;;;1.50;;
4867;SDS011;2448;48.086;10.862;2024-02-16T14:08:43;4.00;;;1.80;;
4867;SDS011;2448;48.086;10.862;2024-02-16T14:11:08;4.40;;;1.53;;
4867;SDS011;2448;48.086;10.862;2024-02-16T14:13:34;3.47;;;2.10;;
4867;SDS011;2448;48.086;10.862;2024-02-16T14:15:59;10.20;;;1.57;;
4867;SDS011;2448;48.086;10.862;2024-02-16T14:18:25;2.10;;;1.80;;
4867;SDS011;2448;48.086;10.862;2024-02-16T14:20:50;3.07;;;1.70;;
4867;SDS011;2448;48.086;10.862;2024-02-16T14:23:15;3.83;;;2.00;;
4867;SDS011;2448;48.086;10.862;2024-02-16T14:25:41;2.00;;;1.40;;
4867;SDS011;2448;48.086;10.862;2024-02-16T14:28:06;1.60;;;1.50;;
4867;SDS011;2448;48.086;10.862;2024-02-16T14:30:32;1.60;;;1.50;;
4867;SDS011;2448;48.086;10.862;2024-02-16T14:32:58;1.50;;;1.40;;
4867;SDS011;2448;48.086;10.862;2024-02-16T14:35:23;1.63;;;1.53;;
4867;SDS011;2448;48.086;10.862;2024-02-16T14:37:49;3.63;;;1.97;;
4867;SDS011;2448;48.086;10.862;2024-02-16T14:40:14;1.50;;;1.40;;
4867;SDS011;2448;48.086;10.862;2024-02-16T14:42:41;1.40;;;1.40;;
4867;SDS011;2448;48.086;10.862;2024-02-16T14:45:07;1.60;;;1.43;;
4867;SDS011;2448;48.086;10.862;2024-02-16T14:47:44;2.60;;;1.73;;
4867;SDS011;2448;48.086;10.862;2024-02-16T14:50:09;2.50;;;1.63;;
4867;SDS011;2448;48.086;10.862;2024-02-16T14:52:36;2.10;;;1.50;;